createdAt,value
2022-11-10T00:00:38.213Z,24.20
2022-11-10T00:03:20.001Z,23.88
2022-11-10T00:05:48.576Z,25.03
2022-11-10T00:08:16.680Z,23.52
2022-11-10T00:11:01.497Z,23.98
2022-11-10T00:13:31.643Z,23.98
2022-11-10T00:16:17.545Z,22.67
2022-11-10T00:18:47.101Z,22.35
2022-11-10T00:21:17.444Z,22.65
2022-11-10T00:23:47.891Z,21.90
2022-11-10T00:26:17.575Z,21.67
2022-11-10T00:28:46.229Z,21.50
2022-11-10T00:31:14.914Z,21.00
2022-11-10T00:33:44.684Z,21.90
2022-11-10T00:36:14.227Z,20.85
2022-11-10T00:38:42.544Z,21.85
2022-11-10T00:41:10.571Z,20.80
2022-11-10T00:43:38.654Z,21.50
2022-11-10T00:46:07.265Z,22.13
2022-11-10T00:48:35.386Z,20.92
2022-11-10T00:51:03.941Z,23.80
2022-11-10T00:53:33.755Z,22.73
2022-11-10T00:56:01.873Z,22.60
2022-11-10T00:58:30.169Z,24.10
2022-11-10T01:01:02.447Z,23.75
2022-11-10T01:03:30.491Z,24.67
2022-11-10T01:05:58.916Z,23.30
2022-11-10T01:08:26.991Z,24.45
2022-11-10T01:11:02.712Z,24.77
2022-11-10T01:13:31.274Z,24.23
2022-11-10T01:16:03.923Z,25.25
2022-11-10T01:18:32.280Z,26.42
2022-11-10T01:21:00.281Z,24.02
2022-11-10T01:23:28.452Z,26.90
2022-11-10T01:25:59.766Z,26.67
2022-11-10T01:28:28.081Z,27.27
2022-11-10T01:30:59.740Z,27.42
2022-11-10T01:33:28.080Z,28.67
2022-11-10T01:35:56.244Z,29.55
2022-11-10T01:38:24.745Z,28.38
2022-11-10T01:40:53.040Z,28.65
2022-11-10T01:43:22.818Z,27.17
2022-11-10T01:45:52.837Z,26.77
2022-11-10T01:48:30.510Z,28.80
2022-11-10T01:51:07.493Z,29.40
2022-11-10T01:53:37.744Z,26.90
2022-11-10T01:56:06.523Z,25.42
2022-11-10T01:58:40.422Z,27.17
2022-11-10T02:01:08.783Z,26.92
2022-11-10T02:03:41.677Z,26.10
2022-11-10T02:06:10.122Z,25.80
2022-11-10T02:08:38.814Z,24.52
2022-11-10T02:11:07.174Z,26.42
2022-11-10T02:13:37.044Z,26.67
2022-11-10T02:16:05.413Z,27.05
2022-11-10T02:18:33.814Z,26.05
2022-11-10T02:21:06.174Z,26.67
2022-11-10T02:23:46.330Z,25.70
2022-11-10T02:26:15.404Z,25.92
2022-11-10T02:28:43.905Z,27.65
2022-11-10T02:31:12.925Z,27.33
2022-11-10T02:33:41.663Z,27.92
2022-11-10T02:36:11.651Z,26.55
2022-11-10T02:38:40.132Z,28.02
2022-11-10T02:41:08.357Z,26.67
2022-11-10T02:43:37.886Z,29.88
2022-11-10T02:46:06.425Z,27.92
2022-11-10T02:48:34.750Z,26.88
2022-11-10T02:51:03.057Z,27.60
2022-11-10T02:53:32.621Z,27.00
2022-11-10T02:56:00.615Z,28.85
2022-11-10T02:58:29.132Z,28.77
2022-11-10T03:00:57.257Z,29.80
2022-11-10T03:03:25.593Z,27.52
2022-11-10T03:05:53.916Z,28.48
2022-11-10T03:08:22.170Z,28.63
2022-11-10T03:10:54.529Z,28.27
2022-11-10T03:13:23.513Z,27.88
2022-11-10T03:15:51.781Z,29.58
2022-11-10T03:18:20.222Z,27.58
2022-11-10T03:20:50.151Z,28.55
2022-11-10T03:23:18.635Z,28.88
2022-11-10T03:25:47.138Z,29.33
2022-11-10T03:28:16.856Z,28.48
2022-11-10T03:30:45.140Z,27.80
2022-11-10T03:33:13.112Z,30.55
2022-11-10T03:35:41.475Z,28.10
2022-11-10T03:38:09.553Z,29.20
2022-11-10T03:40:50.742Z,28.60
2022-11-10T03:43:27.285Z,29.20
2022-11-10T03:45:55.219Z,31.77
2022-11-10T03:48:23.562Z,28.77
2022-11-10T03:50:51.829Z,29.42
2022-11-10T03:53:20.257Z,29.42
2022-11-10T03:55:48.816Z,28.92
2022-11-10T03:58:16.819Z,29.95
2022-11-10T04:00:46.172Z,28.90
2022-11-10T04:03:14.790Z,28.48
2022-11-10T04:06:00.229Z,29.30
2022-11-10T04:08:45.935Z,28.15
2022-11-10T04:11:34.092Z,29.08
2022-11-10T04:14:20.326Z,30.00
2022-11-10T04:16:49.973Z,29.35
2022-11-10T04:19:18.339Z,27.88
2022-11-10T04:21:46.513Z,29.35
2022-11-10T04:24:15.166Z,30.42
2022-11-10T04:26:42.983Z,29.38
2022-11-10T04:29:12.419Z,32.10
2022-11-10T04:31:41.850Z,31.27
2022-11-10T04:34:13.608Z,32.45
2022-11-10T04:36:43.237Z,32.20
2022-11-10T04:39:12.001Z,33.08
2022-11-10T04:41:40.386Z,32.78
2022-11-10T04:44:08.760Z,30.40
2022-11-10T04:46:38.363Z,29.92
2022-11-10T04:49:07.549Z,28.55
2022-11-10T04:51:39.070Z,28.15
2022-11-10T04:54:08.506Z,29.25
2022-11-10T04:56:37.274Z,30.92
2022-11-10T04:59:05.396Z,31.48
2022-11-10T05:01:33.745Z,31.58
2022-11-10T05:04:02.103Z,30.02
2022-11-10T05:06:30.243Z,29.63
2022-11-10T05:09:00.007Z,32.00
2022-11-10T05:11:28.212Z,30.20
2022-11-10T05:13:56.298Z,29.75
2022-11-10T05:16:24.597Z,30.23
2022-11-10T05:18:54.303Z,30.00
2022-11-10T05:21:22.674Z,31.40
2022-11-10T05:23:50.731Z,33.10
2022-11-10T05:26:20.359Z,29.65
2022-11-10T05:28:48.357Z,30.55
2022-11-10T05:31:16.284Z,32.47
2022-11-10T05:33:44.710Z,34.47
2022-11-10T05:36:12.747Z,35.30
2022-11-10T05:38:43.651Z,35.58
2022-11-10T05:41:12.632Z,35.20
2022-11-10T05:43:42.005Z,33.35
2022-11-10T05:46:10.336Z,31.15
2022-11-10T05:48:38.337Z,34.40
2022-11-10T05:51:07.052Z,33.33
2022-11-10T05:53:35.150Z,35.47
2022-11-10T05:56:03.550Z,35.35
2022-11-10T05:58:31.691Z,34.03
2022-11-10T06:01:01.056Z,33.00
2022-11-10T06:03:29.573Z,32.78
2022-11-10T06:05:58.158Z,33.05
2022-11-10T06:08:26.767Z,30.55
2022-11-10T06:10:54.981Z,31.42
2022-11-10T06:13:23.451Z,30.48
2022-11-10T06:15:52.201Z,30.42
2022-11-10T06:18:21.746Z,34.58
2022-11-10T06:20:49.941Z,31.98
2022-11-10T06:23:18.283Z,32.67
2022-11-10T06:25:46.475Z,34.25
2022-11-10T06:28:14.967Z,35.63
2022-11-10T06:30:43.540Z,38.03
2022-11-10T06:33:11.862Z,36.78
2022-11-10T06:35:41.858Z,38.10
2022-11-10T06:38:12.081Z,38.97
2022-11-10T06:40:40.588Z,38.08
2022-11-10T06:43:08.636Z,36.25
2022-11-10T06:45:36.991Z,37.85
2022-11-10T06:48:06.991Z,34.72
2022-11-10T06:50:35.565Z,38.67
2022-11-10T06:53:05.195Z,34.53
2022-11-10T06:55:33.582Z,35.53
2022-11-10T06:58:02.391Z,34.58
2022-11-10T07:00:30.975Z,33.72
2022-11-10T07:03:03.293Z,34.55
2022-11-10T07:05:32.391Z,32.30
2022-11-10T07:08:05.100Z,34.65
2022-11-10T07:10:34.228Z,33.10
2022-11-10T07:13:04.246Z,31.77
2022-11-10T07:15:33.694Z,31.25
2022-11-10T07:18:02.641Z,34.22
2022-11-10T07:20:30.863Z,32.13
2022-11-10T07:23:00.431Z,34.42
2022-11-10T07:25:31.651Z,35.65
2022-11-10T07:28:01.598Z,36.00
2022-11-10T07:30:30.585Z,33.88
2022-11-10T07:33:00.387Z,35.03
2022-11-10T07:35:29.224Z,33.47
2022-11-10T07:37:58.159Z,33.25
2022-11-10T07:40:26.327Z,31.70
2022-11-10T07:42:56.102Z,33.60
2022-11-10T07:45:24.442Z,34.58
2022-11-10T07:47:53.363Z,31.92
2022-11-10T07:50:21.582Z,32.50
2022-11-10T07:52:49.928Z,32.35
2022-11-10T07:55:18.142Z,34.38
2022-11-10T07:57:46.507Z,35.88
2022-11-10T08:00:17.690Z,38.30
2022-11-10T08:02:46.016Z,35.55
2022-11-10T08:05:14.143Z,33.75
2022-11-10T08:07:42.556Z,35.22
2022-11-10T08:10:11.147Z,33.83
2022-11-10T08:12:39.615Z,37.92
2022-11-10T08:15:08.395Z,36.65
2022-11-10T08:17:38.166Z,35.20
2022-11-10T08:20:07.342Z,41.25
2022-11-10T08:22:35.741Z,37.30
2022-11-10T08:25:03.857Z,38.35
2022-11-10T08:27:32.322Z,35.53
2022-11-10T08:30:00.389Z,37.63
2022-11-10T08:32:28.843Z,38.42
2022-11-10T08:34:58.490Z,36.40
2022-11-10T08:37:27.987Z,38.45
2022-11-10T08:39:56.030Z,37.15
2022-11-10T08:42:24.603Z,39.20
2022-11-10T08:44:52.816Z,39.20
2022-11-10T08:47:21.194Z,38.13
2022-11-10T08:49:49.281Z,35.85
2022-11-10T08:52:19.045Z,32.75
2022-11-10T08:54:47.230Z,44.85
2022-11-10T08:57:15.603Z,38.03
2022-11-10T08:59:44.036Z,36.28
2022-11-10T09:02:12.481Z,34.22
2022-11-10T09:04:40.608Z,35.58
2022-11-10T09:07:09.101Z,42.55
2022-11-10T09:09:38.758Z,36.13
2022-11-10T09:12:07.368Z,33.35
2022-11-10T09:14:35.387Z,32.72
2022-11-10T09:17:03.800Z,31.88
2022-11-10T09:19:31.817Z,30.67
2022-11-10T09:22:00.335Z,29.85
2022-11-10T09:24:31.304Z,29.13
2022-11-10T09:27:01.467Z,30.58
2022-11-10T09:29:29.485Z,32.15
2022-11-10T09:31:57.916Z,31.17
2022-11-10T09:34:25.998Z,31.67
2022-11-10T09:36:55.111Z,31.98
2022-11-10T09:39:23.261Z,31.50
2022-11-10T09:41:51.606Z,32.42
2022-11-10T09:44:25.179Z,34.38
2022-11-10T09:46:55.593Z,33.65
2022-11-10T09:49:35.077Z,34.08
2022-11-10T09:52:04.027Z,32.10
2022-11-10T09:54:38.651Z,31.83
2022-11-10T09:57:08.945Z,30.05
2022-11-10T09:59:38.566Z,29.02
2022-11-10T10:02:14.610Z,28.70
2022-11-10T10:04:57.172Z,28.00
2022-11-10T10:07:28.810Z,31.85
2022-11-10T10:15:14.619Z,25.70
2022-11-10T10:17:50.769Z,25.60
2022-11-10T10:20:22.805Z,24.17
2022-11-10T10:23:00.354Z,27.02
2022-11-10T10:25:28.970Z,26.50
2022-11-10T10:28:01.641Z,28.50
2022-11-10T10:30:31.411Z,24.98
2022-11-10T10:33:15.448Z,24.13
2022-11-10T10:35:45.188Z,25.70
2022-11-10T10:38:20.204Z,24.83
2022-11-10T10:40:51.411Z,26.58
2022-11-10T10:43:19.720Z,25.67
2022-11-10T10:46:04.890Z,25.13
2022-11-10T10:48:33.225Z,27.13
2022-11-10T10:51:01.319Z,26.90
2022-11-10T10:53:29.716Z,26.23
2022-11-10T10:56:00.941Z,23.50
2022-11-10T10:58:30.611Z,27.27
2022-11-10T11:01:06.821Z,26.40
2022-11-10T11:03:43.495Z,25.42
2022-11-10T11:06:23.086Z,23.63
2022-11-10T11:08:59.425Z,25.05
2022-11-10T11:11:30.663Z,25.00
2022-11-10T11:14:15.630Z,25.50
2022-11-10T11:16:49.467Z,23.23
2022-11-10T11:19:18.382Z,24.80
2022-11-10T11:22:22.924Z,22.10
2022-11-10T11:24:55.464Z,20.90
2022-11-10T11:27:28.192Z,21.75
2022-11-10T11:30:04.533Z,28.58
2022-11-10T11:32:58.676Z,25.75
2022-11-10T11:35:32.720Z,22.38
2022-11-10T11:38:09.707Z,22.95
2022-11-10T11:40:44.586Z,19.08
2022-11-10T11:43:24.617Z,19.58
2022-11-10T11:45:56.871Z,18.40
2022-11-10T11:48:55.555Z,18.42
2022-11-10T11:51:28.898Z,32.20
2022-11-10T11:54:28.645Z,28.58
2022-11-10T11:57:01.523Z,19.05
2022-11-10T11:59:41.675Z,36.15
2022-11-10T12:02:35.481Z,52.03
2022-11-10T12:05:17.860Z,28.50
2022-11-10T12:07:52.043Z,19.55
2022-11-10T12:10:28.431Z,30.33
2022-11-10T12:13:17.240Z,26.58
2022-11-10T12:15:51.858Z,18.05
2022-11-10T12:18:30.017Z,17.77
2022-11-10T12:21:09.632Z,18.52
2022-11-10T12:23:43.717Z,15.43
2022-11-10T12:26:20.446Z,14.80
2022-11-10T12:28:51.119Z,16.10
2022-11-10T12:31:23.431Z,16.33
2022-11-10T12:33:55.277Z,14.27
2022-11-10T12:36:25.927Z,15.07
2022-11-10T12:39:00.734Z,18.80
2022-11-10T12:41:35.437Z,13.55
2022-11-10T12:44:08.805Z,13.73
2022-11-10T12:46:37.144Z,11.48
2022-11-10T12:49:12.668Z,11.23
2022-11-10T12:51:49.302Z,11.73
2022-11-10T12:54:21.837Z,11.20
2022-11-10T12:56:53.046Z,12.57
2022-11-10T12:59:32.627Z,12.02
2022-11-10T13:02:04.494Z,11.10
2022-11-10T13:04:33.171Z,9.15
2022-11-10T13:07:08.891Z,9.10
2022-11-10T13:09:42.814Z,8.85
2022-11-10T13:12:20.037Z,8.50
2022-11-10T13:14:48.979Z,8.90
2022-11-10T13:17:53.600Z,9.23
2022-11-10T13:20:52.094Z,9.23
2022-11-10T13:23:27.221Z,7.30
2022-11-10T13:26:00.623Z,8.25
2022-11-10T13:28:57.899Z,8.23
2022-11-10T13:31:53.762Z,6.15
2022-11-10T13:34:34.149Z,4.78
2022-11-10T13:37:02.970Z,5.28
2022-11-10T13:39:34.074Z,5.50
2022-11-10T13:42:19.161Z,4.53
2022-11-10T13:44:47.906Z,5.07
2022-11-10T13:47:45.891Z,5.03
2022-11-10T13:50:37.088Z,4.53
2022-11-10T13:53:19.351Z,5.82
2022-11-10T13:55:57.315Z,5.05
2022-11-10T13:58:27.041Z,5.53
2022-11-10T14:01:21.767Z,6.13
2022-11-10T14:03:55.300Z,6.10
2022-11-10T14:06:26.203Z,5.38
2022-11-10T14:08:57.315Z,6.57
2022-11-10T14:14:02.252Z,4.78
2022-11-10T14:16:33.231Z,5.35
2022-11-10T14:19:07.294Z,6.45
2022-11-10T14:21:42.530Z,5.30
2022-11-10T14:24:18.306Z,5.25
2022-11-10T14:26:49.898Z,5.03
2022-11-10T14:31:58.261Z,5.10
2022-11-10T14:34:26.451Z,5.88
2022-11-10T14:36:56.016Z,5.68
2022-11-10T14:39:29.338Z,8.68
2022-11-10T14:42:01.480Z,5.90
2022-11-10T14:44:31.855Z,7.57
2022-11-10T14:47:14.966Z,6.93
2022-11-10T14:49:43.964Z,8.00
2022-11-10T14:52:15.117Z,7.53
2022-11-10T14:54:45.822Z,6.63
2022-11-10T14:57:19.755Z,7.93
2022-11-10T14:59:48.075Z,8.25
2022-11-10T15:02:18.830Z,6.13
2022-11-10T15:04:48.131Z,6.90
2022-11-10T15:07:16.687Z,8.60
2022-11-10T15:10:04.328Z,7.82
2022-11-10T15:12:38.118Z,9.95
2022-11-10T15:15:22.909Z,8.60
2022-11-10T15:17:52.678Z,8.63
2022-11-10T15:20:38.325Z,11.73
2022-11-10T15:23:14.379Z,10.10
2022-11-10T15:25:42.752Z,11.60
2022-11-10T15:28:28.954Z,15.60
2022-11-10T15:30:58.546Z,13.05
2022-11-10T15:33:28.672Z,14.15
2022-11-10T15:35:57.624Z,14.63
2022-11-10T15:38:31.745Z,13.75
2022-11-10T15:41:12.447Z,10.60
2022-11-10T15:43:42.060Z,12.38
2022-11-10T15:46:18.290Z,11.05
2022-11-10T15:48:48.508Z,12.52
2022-11-10T15:51:24.485Z,10.82
2022-11-10T15:53:55.594Z,10.57
2022-11-10T15:56:25.488Z,11.13
2022-11-10T15:59:00.644Z,11.57
2022-11-10T16:01:30.355Z,9.68
2022-11-10T16:03:58.740Z,13.13
2022-11-10T16:06:27.589Z,13.68
2022-11-10T16:08:56.042Z,14.90
2022-11-10T16:11:24.825Z,15.60
2022-11-10T16:13:54.918Z,24.63
2022-11-10T16:16:24.157Z,23.88
2022-11-10T16:18:53.215Z,21.55
2022-11-10T16:21:23.150Z,24.05
2022-11-10T16:23:51.368Z,22.58
2022-11-10T16:26:21.356Z,21.40
2022-11-10T16:28:49.846Z,23.48
2022-11-10T16:31:21.995Z,23.75
2022-11-10T16:33:50.885Z,25.75
2022-11-10T16:36:24.301Z,25.30
2022-11-10T16:38:53.123Z,25.88
2022-11-10T16:41:21.479Z,27.92
2022-11-10T16:43:49.580Z,26.00
2022-11-10T16:46:21.533Z,29.73
2022-11-10T16:48:50.344Z,27.75
2022-11-10T16:51:19.036Z,28.17
2022-11-10T16:53:47.146Z,29.80
2022-11-10T16:56:16.149Z,27.08
2022-11-10T16:58:44.630Z,28.60
2022-11-10T17:01:19.969Z,27.30
2022-11-10T17:03:50.860Z,27.42
2022-11-10T17:06:19.748Z,27.90
2022-11-10T17:08:48.464Z,29.73
2022-11-10T17:11:17.024Z,32.08
2022-11-10T17:13:45.747Z,31.95
2022-11-10T17:16:21.252Z,31.33
2022-11-10T17:18:49.476Z,31.58
2022-11-10T17:21:19.439Z,31.20
2022-11-10T17:23:47.653Z,30.83
2022-11-10T17:26:17.693Z,31.60
2022-11-10T17:28:47.555Z,32.97
2022-11-10T17:31:15.993Z,40.92
2022-11-10T17:33:45.690Z,35.60
2022-11-10T17:36:15.517Z,38.00
2022-11-10T17:38:44.369Z,36.45
2022-11-10T17:41:16.693Z,36.60
2022-11-10T17:43:46.119Z,34.80
2022-11-10T17:46:14.656Z,41.03
2022-11-10T17:48:43.414Z,37.75
2022-11-10T17:51:16.528Z,37.17
2022-11-10T17:53:44.977Z,40.78
2022-11-10T17:56:13.236Z,40.85
2022-11-10T17:58:41.660Z,37.53
2022-11-10T18:01:15.107Z,37.97
2022-11-10T18:03:43.644Z,35.78
2022-11-10T18:06:15.678Z,37.55
2022-11-10T18:08:44.760Z,37.05
2022-11-10T18:11:15.413Z,35.83
2022-11-10T18:13:43.716Z,36.25
2022-11-10T18:16:12.869Z,34.20
2022-11-10T18:18:41.327Z,35.72
2022-11-10T18:21:10.893Z,35.70
2022-11-10T18:23:40.507Z,35.10
2022-11-10T18:26:11.727Z,33.35
2022-11-10T18:28:42.194Z,33.28
2022-11-10T18:31:12.578Z,32.92
2022-11-10T18:33:41.272Z,37.05
2022-11-10T18:36:11.288Z,36.45
2022-11-10T18:38:40.802Z,38.60
2022-11-10T18:41:26.590Z,36.80
2022-11-10T18:43:54.832Z,37.80
2022-11-10T18:46:23.177Z,36.20
2022-11-10T18:48:51.976Z,34.92
2022-11-10T18:51:20.325Z,36.67
2022-11-10T18:53:49.912Z,35.88
2022-11-10T18:56:18.325Z,34.35
2022-11-10T18:58:53.700Z,35.42
2022-11-10T19:01:25.385Z,34.20
2022-11-10T19:03:53.760Z,35.17
2022-11-10T19:06:22.266Z,33.35
2022-11-10T19:08:51.834Z,31.75
2022-11-10T19:11:20.939Z,30.58
2022-11-10T19:13:50.280Z,31.98
2022-11-10T19:16:19.725Z,32.15
2022-11-10T19:18:47.840Z,32.53
2022-11-10T19:21:18.425Z,32.60
2022-11-10T19:23:46.569Z,31.45
2022-11-10T19:26:22.458Z,31.65
2022-11-10T19:28:53.376Z,32.70
2022-11-10T19:31:22.979Z,32.15
2022-11-10T19:33:52.841Z,34.10
2022-11-10T19:36:22.927Z,30.60
2022-11-10T19:38:51.205Z,31.42
2022-11-10T19:41:22.870Z,31.98
2022-11-10T19:46:23.665Z,32.97
2022-11-10T19:48:52.027Z,36.80
2022-11-10T19:51:20.420Z,35.75
2022-11-10T19:53:51.067Z,33.45
2022-11-10T19:56:21.544Z,34.92
2022-11-10T19:58:49.961Z,33.92
2022-11-10T20:01:19.708Z,33.63
2022-11-10T20:03:48.017Z,32.83
2022-11-10T20:06:18.213Z,35.30
2022-11-10T20:08:46.348Z,36.00
2022-11-10T20:11:16.245Z,36.33
2022-11-10T20:13:45.680Z,34.20
2022-11-10T20:16:13.723Z,33.45
2022-11-10T20:18:42.437Z,31.00
2022-11-10T20:21:14.685Z,29.52
2022-11-10T20:23:43.431Z,31.13
2022-11-10T20:26:14.215Z,31.77
2022-11-10T20:28:43.033Z,30.73
2022-11-10T20:31:14.283Z,28.38
2022-11-10T20:33:42.626Z,29.70
2022-11-10T20:36:19.005Z,29.80
2022-11-10T20:38:49.138Z,29.20
2022-11-10T20:41:19.466Z,30.42
2022-11-10T20:43:48.442Z,29.75
2022-11-10T20:46:40.349Z,28.48
2022-11-10T20:49:07.873Z,26.50
2022-11-10T20:51:35.893Z,25.40
2022-11-10T20:54:04.391Z,24.98
2022-11-10T20:56:32.417Z,26.30
2022-11-10T20:59:00.711Z,29.63
2022-11-10T21:01:30.210Z,30.30
2022-11-10T21:03:58.971Z,28.85
2022-11-10T21:06:27.094Z,30.45
2022-11-10T21:08:57.036Z,33.65
2022-11-10T21:11:38.958Z,33.50
2022-11-10T21:14:07.321Z,33.08
2022-11-10T21:16:36.749Z,31.80
2022-11-10T21:19:05.141Z,35.05
2022-11-10T21:21:35.162Z,34.13
2022-11-10T21:24:03.281Z,35.25
2022-11-10T21:26:32.079Z,35.53
2022-11-10T21:29:00.249Z,35.35
2022-11-10T21:31:30.127Z,36.00
2022-11-10T21:33:59.987Z,35.42
2022-11-10T21:36:29.724Z,32.97
2022-11-10T21:38:58.615Z,33.63
2022-11-10T21:41:27.437Z,34.17
2022-11-10T21:43:55.599Z,31.80
2022-11-10T21:46:24.147Z,32.58
2022-11-10T21:48:52.347Z,31.17
2022-11-10T21:51:22.194Z,31.42
2022-11-10T21:53:50.392Z,30.67
2022-11-10T21:56:19.025Z,31.25
2022-11-10T21:58:47.150Z,31.88
2022-11-10T22:01:18.388Z,30.75
2022-11-10T22:03:46.981Z,30.35
2022-11-10T22:06:16.689Z,29.40
2022-11-10T22:08:47.692Z,29.13
2022-11-10T22:11:38.074Z,28.30
2022-11-10T22:14:29.939Z,28.45
2022-11-10T22:17:15.748Z,28.40
2022-11-10T22:19:44.725Z,31.13
2022-11-10T22:22:14.378Z,30.20
2022-11-10T22:24:44.088Z,30.02
2022-11-10T22:27:12.217Z,28.77
2022-11-10T22:29:40.606Z,27.10
2022-11-10T22:32:08.820Z,27.48
2022-11-10T22:34:37.222Z,27.70
2022-11-10T22:37:05.573Z,30.35
2022-11-10T22:39:47.829Z,29.42
2022-11-10T22:42:34.918Z,28.95
2022-11-10T22:45:03.056Z,30.48
2022-11-10T22:47:51.480Z,33.05
2022-11-10T22:50:19.709Z,35.70
2022-11-10T22:52:48.007Z,33.67
2022-11-10T22:55:16.413Z,35.05
2022-11-10T22:57:46.146Z,35.63
2022-11-10T23:00:16.040Z,33.65
2022-11-10T23:02:44.785Z,34.13
2022-11-10T23:05:13.223Z,33.08
2022-11-10T23:07:41.583Z,31.48
2022-11-10T23:10:09.989Z,31.10
2022-11-10T23:12:38.195Z,30.08
2022-11-10T23:15:09.073Z,31.50
2022-11-10T23:17:37.131Z,31.27
2022-11-10T23:20:06.113Z,31.90
2022-11-10T23:22:34.348Z,31.45
2022-11-10T23:25:02.675Z,30.65
2022-11-10T23:27:30.907Z,30.23
2022-11-10T23:29:59.284Z,31.30
2022-11-10T23:32:28.974Z,30.30
2022-11-10T23:34:57.446Z,31.95
2022-11-10T23:37:25.482Z,29.00
2022-11-10T23:39:53.750Z,32.63
2022-11-10T23:42:22.274Z,31.55
2022-11-10T23:44:52.724Z,33.58
2022-11-10T23:47:21.176Z,34.78
2022-11-10T23:49:50.539Z,33.72
2022-11-10T23:52:18.857Z,32.03
2022-11-10T23:54:46.887Z,34.00
2022-11-10T23:57:15.339Z,33.72
2022-11-10T23:59:43.452Z,30.02
